sensor_id;sensor_type;location;lat;lon;timestamp;temperature;humidity
5494;DHT22;2769;49.864;8.656;2022-12-16T00:01:40;-1.10;99.90
5494;DHT22;2769;49.864;8.656;2022-12-16T00:04:09;-0.90;99.90
5494;DHT22;2769;49.864;8.656;2022-12-16T00:06:37;-1.00;99.90
5494;DHT22;2769;49.864;8.656;2022-12-16T00:09:06;-0.80;99.90
5494;DHT22;2769;49.864;8.656;2022-12-16T00:11:34;-1.00;99.90
5494;DHT22;2769;49.864;8.656;2022-12-16T00:14:03;-1.00;99.90
5494;DHT22;2769;49.864;8.656;2022-12-16T00:16:31;-1.20;99.90
5494;DHT22;2769;49.864;8.656;2022-12-16T00:18:59;-1.00;99.90
5494;DHT22;2769;49.864;8.656;2022-12-16T00:21:32;-0.90;99.90
5494;DHT22;2769;49.864;8.656;2022-12-16T00:24:00;-1.20;99.90
5494;DHT22;2769;49.864;8.656;2022-12-16T00:26:29;-1.00;99.90
5494;DHT22;2769;49.864;8.656;2022-12-16T00:28:57;-1.10;99.90
5494;DHT22;2769;49.864;8.656;2022-12-16T00:31:25;-0.90;99.90
5494;DHT22;2769;49.864;8.656;2022-12-16T00:33:55;-0.70;99.90
5494;DHT22;2769;49.864;8.656;2022-12-16T00:36:23;-0.90;99.90
5494;DHT22;2769;49.864;8.656;2022-12-16T00:38:53;-0.90;99.90
5494;DHT22;2769;49.864;8.656;2022-12-16T00:41:21;-0.90;99.90
5494;DHT22;2769;49.864;8.656;2022-12-16T00:43:50;-0.60;99.90
5494;DHT22;2769;49.864;8.656;2022-12-16T00:46:19;-0.80;99.90
5494;DHT22;2769;49.864;8.656;2022-12-16T00:48:47;-0.80;99.90
5494;DHT22;2769;49.864;8.656;2022-12-16T00:51:16;-0.60;99.90
5494;DHT22;2769;49.864;8.656;2022-12-16T00:53:44;-0.70;99.90
5494;DHT22;2769;49.864;8.656;2022-12-16T00:56:14;-0.70;99.90
5494;DHT22;2769;49.864;8.656;2022-12-16T00:58:44;-0.60;99.90
5494;DHT22;2769;49.864;8.656;2022-12-16T01:01:12;-0.60;99.90
5494;DHT22;2769;49.864;8.656;2022-12-16T01:03:41;-0.70;99.90
5494;DHT22;2769;49.864;8.656;2022-12-16T01:06:11;-0.70;99.90
5494;DHT22;2769;49.864;8.656;2022-12-16T01:08:40;-0.60;99.90
5494;DHT22;2769;49.864;8.656;2022-12-16T01:11:17;-0.60;99.90
5494;DHT22;2769;49.864;8.656;2022-12-16T01:13:49;-0.60;99.90
5494;DHT22;2769;49.864;8.656;2022-12-16T01:16:20;-0.50;99.90
5494;DHT22;2769;49.864;8.656;2022-12-16T01:18:49;-0.50;99.90
5494;DHT22;2769;49.864;8.656;2022-12-16T01:21:17;-0.50;99.90
5494;DHT22;2769;49.864;8.656;2022-12-16T01:23:46;-0.50;99.90
5494;DHT22;2769;49.864;8.656;2022-12-16T01:26:17;-0.60;99.90
5494;DHT22;2769;49.864;8.656;2022-12-16T01:28:47;-0.80;99.90
5494;DHT22;2769;49.864;8.656;2022-12-16T01:31:17;-0.60;99.90
5494;DHT22;2769;49.864;8.656;2022-12-16T01:33:46;-0.60;99.90
5494;DHT22;2769;49.864;8.656;2022-12-16T01:36:14;-0.80;99.90
5494;DHT22;2769;49.864;8.656;2022-12-16T01:38:43;-0.50;99.90
5494;DHT22;2769;49.864;8.656;2022-12-16T01:41:12;-0.60;99.90
5494;DHT22;2769;49.864;8.656;2022-12-16T01:43:43;-0.80;99.90
5494;DHT22;2769;49.864;8.656;2022-12-16T01:46:17;-0.80;99.90
5494;DHT22;2769;49.864;8.656;2022-12-16T01:48:51;-0.70;99.90
5494;DHT22;2769;49.864;8.656;2022-12-16T01:51:25;-1.00;99.90
5494;DHT22;2769;49.864;8.656;2022-12-16T01:53:57;-0.80;99.90
5494;DHT22;2769;49.864;8.656;2022-12-16T01:56:27;-0.90;99.90
5494;DHT22;2769;49.864;8.656;2022-12-16T01:58:59;-0.90;99.90
5494;DHT22;2769;49.864;8.656;2022-12-16T02:01:28;-1.00;99.90
5494;DHT22;2769;49.864;8.656;2022-12-16T02:03:58;-1.00;99.90
5494;DHT22;2769;49.864;8.656;2022-12-16T02:06:29;-0.90;99.90
5494;DHT22;2769;49.864;8.656;2022-12-16T02:08:59;-1.10;99.90
5494;DHT22;2769;49.864;8.656;2022-12-16T02:11:52;-1.20;99.90
5494;DHT22;2769;49.864;8.656;2022-12-16T02:14:39;-1.20;99.90
5494;DHT22;2769;49.864;8.656;2022-12-16T02:17:22;-1.30;99.90
5494;DHT22;2769;49.864;8.656;2022-12-16T02:20:36;-1.20;99.90
5494;DHT22;2769;49.864;8.656;2022-12-16T02:23:22;-1.30;99.90
5494;DHT22;2769;49.864;8.656;2022-12-16T02:26:13;-1.30;99.90
5494;DHT22;2769;49.864;8.656;2022-12-16T02:29:04;-1.20;99.90
5494;DHT22;2769;49.864;8.656;2022-12-16T02:31:40;-1.20;99.90
5494;DHT22;2769;49.864;8.656;2022-12-16T02:34:17;-1.20;99.90
5494;DHT22;2769;49.864;8.656;2022-12-16T02:37:02;-1.30;99.90
5494;DHT22;2769;49.864;8.656;2022-12-16T02:39:36;-1.20;99.90
5494;DHT22;2769;49.864;8.656;2022-12-16T02:42:10;-1.10;99.90
5494;DHT22;2769;49.864;8.656;2022-12-16T02:44:43;-1.30;99.90
5494;DHT22;2769;49.864;8.656;2022-12-16T02:47:17;-1.20;99.90
5494;DHT22;2769;49.864;8.656;2022-12-16T02:49:48;-1.20;99.90
5494;DHT22;2769;49.864;8.656;2022-12-16T02:52:19;-1.20;99.90
5494;DHT22;2769;49.864;8.656;2022-12-16T02:54:51;-0.90;99.90
5494;DHT22;2769;49.864;8.656;2022-12-16T02:57:35;-1.10;99.90
5494;DHT22;2769;49.864;8.656;2022-12-16T03:00:10;-1.30;99.90
5494;DHT22;2769;49.864;8.656;2022-12-16T03:02:48;-1.20;99.90
5494;DHT22;2769;49.864;8.656;2022-12-16T03:05:23;-1.20;99.90
5494;DHT22;2769;49.864;8.656;2022-12-16T03:07:53;-1.20;99.90
5494;DHT22;2769;49.864;8.656;2022-12-16T03:10:27;-1.40;99.90
5494;DHT22;2769;49.864;8.656;2022-12-16T03:12:57;-1.40;99.90
5494;DHT22;2769;49.864;8.656;2022-12-16T03:15:28;-1.40;99.90
5494;DHT22;2769;49.864;8.656;2022-12-16T03:18:00;-1.50;99.90
5494;DHT22;2769;49.864;8.656;2022-12-16T03:20:34;-1.60;99.90
5494;DHT22;2769;49.864;8.656;2022-12-16T03:23:07;-1.30;99.90
5494;DHT22;2769;49.864;8.656;2022-12-16T03:25:41;-1.50;99.90
5494;DHT22;2769;49.864;8.656;2022-12-16T03:28:19;-1.60;99.90
5494;DHT22;2769;49.864;8.656;2022-12-16T03:30:57;-1.40;99.90
5494;DHT22;2769;49.864;8.656;2022-12-16T03:33:33;-1.60;99.90
5494;DHT22;2769;49.864;8.656;2022-12-16T03:36:06;-1.70;99.90
5494;DHT22;2769;49.864;8.656;2022-12-16T03:38:36;-1.60;99.90
5494;DHT22;2769;49.864;8.656;2022-12-16T03:41:06;-1.20;99.90
5494;DHT22;2769;49.864;8.656;2022-12-16T03:43:35;-1.40;99.90
5494;DHT22;2769;49.864;8.656;2022-12-16T03:46:06;-1.50;99.90
5494;DHT22;2769;49.864;8.656;2022-12-16T03:48:44;-1.60;99.90
5494;DHT22;2769;49.864;8.656;2022-12-16T03:51:13;-1.70;99.90
5494;DHT22;2769;49.864;8.656;2022-12-16T03:53:41;-1.30;99.90
5494;DHT22;2769;49.864;8.656;2022-12-16T03:56:10;-1.80;99.90
5494;DHT22;2769;49.864;8.656;2022-12-16T03:58:39;-1.80;99.90
5494;DHT22;2769;49.864;8.656;2022-12-16T04:01:08;-1.60;99.90
5494;DHT22;2769;49.864;8.656;2022-12-16T04:03:38;-1.80;99.90
5494;DHT22;2769;49.864;8.656;2022-12-16T04:06:07;-1.70;99.90
5494;DHT22;2769;49.864;8.656;2022-12-16T04:08:35;-1.80;99.90
5494;DHT22;2769;49.864;8.656;2022-12-16T04:11:03;-1.70;99.90
5494;DHT22;2769;49.864;8.656;2022-12-16T04:13:49;-1.60;99.90
5494;DHT22;2769;49.864;8.656;2022-12-16T04:16:35;-1.80;99.90
5494;DHT22;2769;49.864;8.656;2022-12-16T04:19:25;-1.50;99.90
5494;DHT22;2769;49.864;8.656;2022-12-16T04:22:13;-1.60;99.90
5494;DHT22;2769;49.864;8.656;2022-12-16T04:25:04;-1.80;99.90
5494;DHT22;2769;49.864;8.656;2022-12-16T04:27:32;-1.60;99.90
5494;DHT22;2769;49.864;8.656;2022-12-16T04:30:00;-1.70;99.90
5494;DHT22;2769;49.864;8.656;2022-12-16T04:32:51;-1.80;99.90
5494;DHT22;2769;49.864;8.656;2022-12-16T04:35:39;-1.60;99.90
5494;DHT22;2769;49.864;8.656;2022-12-16T04:38:25;-1.70;99.90
5494;DHT22;2769;49.864;8.656;2022-12-16T04:41:11;-1.60;99.90
5494;DHT22;2769;49.864;8.656;2022-12-16T04:44:00;-1.90;99.90
5494;DHT22;2769;49.864;8.656;2022-12-16T04:46:46;-1.80;99.90
5494;DHT22;2769;49.864;8.656;2022-12-16T04:49:41;-1.60;99.90
5494;DHT22;2769;49.864;8.656;2022-12-16T04:52:28;-1.80;99.90
5494;DHT22;2769;49.864;8.656;2022-12-16T04:55:13;-1.70;99.90
5494;DHT22;2769;49.864;8.656;2022-12-16T04:58:00;-1.50;99.90
5494;DHT22;2769;49.864;8.656;2022-12-16T05:00:49;-1.60;99.90
5494;DHT22;2769;49.864;8.656;2022-12-16T05:03:35;-1.40;99.90
5494;DHT22;2769;49.864;8.656;2022-12-16T05:06:21;-1.40;99.90
5494;DHT22;2769;49.864;8.656;2022-12-16T05:09:08;-1.50;99.90
5494;DHT22;2769;49.864;8.656;2022-12-16T05:11:54;-1.70;99.90
5494;DHT22;2769;49.864;8.656;2022-12-16T05:14:39;-1.70;99.90
5494;DHT22;2769;49.864;8.656;2022-12-16T05:17:25;-1.70;99.90
5494;DHT22;2769;49.864;8.656;2022-12-16T05:20:10;-1.70;99.90
5494;DHT22;2769;49.864;8.656;2022-12-16T05:22:56;-1.70;99.90
5494;DHT22;2769;49.864;8.656;2022-12-16T05:25:43;-1.80;99.90
5494;DHT22;2769;49.864;8.656;2022-12-16T05:28:29;-1.50;99.90
5494;DHT22;2769;49.864;8.656;2022-12-16T05:31:14;-1.60;99.90
5494;DHT22;2769;49.864;8.656;2022-12-16T05:34:00;-1.60;99.90
5494;DHT22;2769;49.864;8.656;2022-12-16T05:36:46;-1.70;99.90
5494;DHT22;2769;49.864;8.656;2022-12-16T05:39:34;-1.50;99.90
5494;DHT22;2769;49.864;8.656;2022-12-16T05:42:22;-1.70;99.90
5494;DHT22;2769;49.864;8.656;2022-12-16T05:45:07;-1.90;99.90
5494;DHT22;2769;49.864;8.656;2022-12-16T05:47:53;-1.80;99.90
5494;DHT22;2769;49.864;8.656;2022-12-16T05:50:38;-1.80;99.90
5494;DHT22;2769;49.864;8.656;2022-12-16T05:53:24;-1.80;99.90
5494;DHT22;2769;49.864;8.656;2022-12-16T05:56:09;-1.80;99.90
5494;DHT22;2769;49.864;8.656;2022-12-16T05:58:56;-1.90;99.90
5494;DHT22;2769;49.864;8.656;2022-12-16T06:01:42;-2.00;99.90
5494;DHT22;2769;49.864;8.656;2022-12-16T06:04:28;-1.90;99.90
5494;DHT22;2769;49.864;8.656;2022-12-16T06:07:13;-1.70;99.90
5494;DHT22;2769;49.864;8.656;2022-12-16T06:09:59;-1.90;99.90
5494;DHT22;2769;49.864;8.656;2022-12-16T06:12:45;-1.80;99.90
5494;DHT22;2769;49.864;8.656;2022-12-16T06:15:33;-2.10;99.90
5494;DHT22;2769;49.864;8.656;2022-12-16T06:18:18;-2.00;99.90
5494;DHT22;2769;49.864;8.656;2022-12-16T06:21:04;-1.90;99.90
5494;DHT22;2769;49.864;8.656;2022-12-16T06:23:50;-1.80;99.90
5494;DHT22;2769;49.864;8.656;2022-12-16T06:26:35;-1.90;99.90
5494;DHT22;2769;49.864;8.656;2022-12-16T06:29:21;-1.80;99.90
5494;DHT22;2769;49.864;8.656;2022-12-16T06:32:08;-1.80;99.90
5494;DHT22;2769;49.864;8.656;2022-12-16T06:34:54;-1.80;99.90
5494;DHT22;2769;49.864;8.656;2022-12-16T06:37:39;-1.70;99.90
5494;DHT22;2769;49.864;8.656;2022-12-16T06:40:24;-1.60;99.90
5494;DHT22;2769;49.864;8.656;2022-12-16T06:43:10;-1.90;99.90
5494;DHT22;2769;49.864;8.656;2022-12-16T06:45:56;-1.70;99.90
5494;DHT22;2769;49.864;8.656;2022-12-16T06:48:44;-1.80;99.90
5494;DHT22;2769;49.864;8.656;2022-12-16T06:51:26;-1.70;99.90
5494;DHT22;2769;49.864;8.656;2022-12-16T06:54:12;-1.50;99.90
5494;DHT22;2769;49.864;8.656;2022-12-16T06:56:57;-1.40;99.90
5494;DHT22;2769;49.864;8.656;2022-12-16T06:59:43;-1.60;99.90
5494;DHT22;2769;49.864;8.656;2022-12-16T07:02:29;-1.70;99.90
5494;DHT22;2769;49.864;8.656;2022-12-16T07:05:16;-1.70;99.90
5494;DHT22;2769;49.864;8.656;2022-12-16T07:08:01;-1.90;99.90
5494;DHT22;2769;49.864;8.656;2022-12-16T07:10:47;-1.80;99.90
5494;DHT22;2769;49.864;8.656;2022-12-16T07:13:43;-1.90;99.90
5494;DHT22;2769;49.864;8.656;2022-12-16T07:16:29;-1.70;99.90
5494;DHT22;2769;49.864;8.656;2022-12-16T07:19:15;-1.90;99.90
5494;DHT22;2769;49.864;8.656;2022-12-16T07:22:02;-1.80;99.90
5494;DHT22;2769;49.864;8.656;2022-12-16T07:24:48;-2.00;99.90
5494;DHT22;2769;49.864;8.656;2022-12-16T07:27:33;-2.00;99.90
5494;DHT22;2769;49.864;8.656;2022-12-16T07:30:19;-1.70;99.90
5494;DHT22;2769;49.864;8.656;2022-12-16T07:33:04;-1.80;99.90
5494;DHT22;2769;49.864;8.656;2022-12-16T07:35:50;-1.70;99.90
5494;DHT22;2769;49.864;8.656;2022-12-16T07:38:37;-1.80;99.90
5494;DHT22;2769;49.864;8.656;2022-12-16T07:41:34;-2.00;99.90
5494;DHT22;2769;49.864;8.656;2022-12-16T07:44:20;-1.90;99.90
5494;DHT22;2769;49.864;8.656;2022-12-16T07:47:05;-1.80;99.90
5494;DHT22;2769;49.864;8.656;2022-12-16T07:49:51;-1.80;99.90
5494;DHT22;2769;49.864;8.656;2022-12-16T07:52:37;-1.80;99.90
5494;DHT22;2769;49.864;8.656;2022-12-16T07:55:24;-1.80;99.90
5494;DHT22;2769;49.864;8.656;2022-12-16T07:58:10;-2.00;99.90
5494;DHT22;2769;49.864;8.656;2022-12-16T08:00:55;-1.90;99.90
5494;DHT22;2769;49.864;8.656;2022-12-16T08:03:41;-1.70;99.90
5494;DHT22;2769;49.864;8.656;2022-12-16T08:06:26;-2.00;99.90
5494;DHT22;2769;49.864;8.656;2022-12-16T08:09:12;-1.90;99.90
5494;DHT22;2769;49.864;8.656;2022-12-16T08:11:59;-1.90;99.90
5494;DHT22;2769;49.864;8.656;2022-12-16T08:14:44;-1.90;99.90
5494;DHT22;2769;49.864;8.656;2022-12-16T08:17:30;-1.90;99.90
5494;DHT22;2769;49.864;8.656;2022-12-16T08:20:18;-2.00;99.90
5494;DHT22;2769;49.864;8.656;2022-12-16T08:23:03;-2.00;99.90
5494;DHT22;2769;49.864;8.656;2022-12-16T08:25:49;-1.90;99.90
5494;DHT22;2769;49.864;8.656;2022-12-16T08:28:36;-1.90;99.90
5494;DHT22;2769;49.864;8.656;2022-12-16T08:31:44;-1.90;99.90
5494;DHT22;2769;49.864;8.656;2022-12-16T08:34:30;-1.80;99.90
5494;DHT22;2769;49.864;8.656;2022-12-16T08:37:15;-1.70;99.90
5494;DHT22;2769;49.864;8.656;2022-12-16T08:40:01;-1.70;99.90
5494;DHT22;2769;49.864;8.656;2022-12-16T08:43:02;-1.80;99.90
5494;DHT22;2769;49.864;8.656;2022-12-16T08:45:52;-1.70;99.90
5494;DHT22;2769;49.864;8.656;2022-12-16T08:48:38;-1.50;99.90
5494;DHT22;2769;49.864;8.656;2022-12-16T08:51:24;-1.70;99.90
5494;DHT22;2769;49.864;8.656;2022-12-16T08:54:10;-1.80;99.90
5494;DHT22;2769;49.864;8.656;2022-12-16T08:56:56;-1.50;99.90
5494;DHT22;2769;49.864;8.656;2022-12-16T08:59:42;-1.60;99.90
5494;DHT22;2769;49.864;8.656;2022-12-16T09:02:29;-1.40;99.90
5494;DHT22;2769;49.864;8.656;2022-12-16T09:05:15;-1.20;99.90
5494;DHT22;2769;49.864;8.656;2022-12-16T09:08:02;-1.10;99.90
5494;DHT22;2769;49.864;8.656;2022-12-16T09:10:48;-0.90;99.90
5494;DHT22;2769;49.864;8.656;2022-12-16T09:13:33;-0.80;99.90
5494;DHT22;2769;49.864;8.656;2022-12-16T09:16:20;-0.50;99.90
5494;DHT22;2769;49.864;8.656;2022-12-16T09:19:09;-0.70;99.90
5494;DHT22;2769;49.864;8.656;2022-12-16T09:21:55;-0.60;99.90
5494;DHT22;2769;49.864;8.656;2022-12-16T09:24:40;-0.40;99.90
5494;DHT22;2769;49.864;8.656;2022-12-16T09:27:29;-0.30;99.90
5494;DHT22;2769;49.864;8.656;2022-12-16T09:30:15;-0.40;99.90
5494;DHT22;2769;49.864;8.656;2022-12-16T09:33:00;-0.10;99.90
5494;DHT22;2769;49.864;8.656;2022-12-16T09:35:48;-0.10;99.90
5494;DHT22;2769;49.864;8.656;2022-12-16T09:38:33;0.40;99.90
5494;DHT22;2769;49.864;8.656;2022-12-16T09:41:27;0.20;99.90
5494;DHT22;2769;49.864;8.656;2022-12-16T09:44:34;0.50;99.90
5494;DHT22;2769;49.864;8.656;2022-12-16T09:47:27;0.90;99.90
5494;DHT22;2769;49.864;8.656;2022-12-16T09:50:20;1.10;99.90
5494;DHT22;2769;49.864;8.656;2022-12-16T09:53:12;1.50;99.90
5494;DHT22;2769;49.864;8.656;2022-12-16T09:56:00;2.50;99.90
5494;DHT22;2769;49.864;8.656;2022-12-16T09:58:51;2.50;99.90
5494;DHT22;2769;49.864;8.656;2022-12-16T10:01:38;3.40;99.90
5494;DHT22;2769;49.864;8.656;2022-12-16T10:04:36;4.10;99.90
5494;DHT22;2769;49.864;8.656;2022-12-16T10:07:22;4.90;99.90
5494;DHT22;2769;49.864;8.656;2022-12-16T10:10:20;5.30;99.90
5494;DHT22;2769;49.864;8.656;2022-12-16T10:13:13;5.80;99.90
5494;DHT22;2769;49.864;8.656;2022-12-16T10:16:07;6.40;99.50
5494;DHT22;2769;49.864;8.656;2022-12-16T10:19:00;6.10;99.10
5494;DHT22;2769;49.864;8.656;2022-12-16T10:21:57;6.20;99.20
5494;DHT22;2769;49.864;8.656;2022-12-16T10:24:52;6.20;99.20
5494;DHT22;2769;49.864;8.656;2022-12-16T10:27:44;6.80;98.20
5494;DHT22;2769;49.864;8.656;2022-12-16T10:30:31;7.00;97.80
5494;DHT22;2769;49.864;8.656;2022-12-16T10:33:20;7.10;96.80
5494;DHT22;2769;49.864;8.656;2022-12-16T10:36:12;7.40;97.00
5494;DHT22;2769;49.864;8.656;2022-12-16T10:39:01;7.60;96.10
5494;DHT22;2769;49.864;8.656;2022-12-16T10:41:51;7.60;95.60
5494;DHT22;2769;49.864;8.656;2022-12-16T10:44:44;7.40;96.30
5494;DHT22;2769;49.864;8.656;2022-12-16T10:47:33;7.90;95.80
5494;DHT22;2769;49.864;8.656;2022-12-16T10:50:19;8.50;94.70
5494;DHT22;2769;49.864;8.656;2022-12-16T10:53:02;8.50;93.90
5494;DHT22;2769;49.864;8.656;2022-12-16T10:55:56;9.10;92.90
5494;DHT22;2769;49.864;8.656;2022-12-16T10:58:48;9.50;92.10
5494;DHT22;2769;49.864;8.656;2022-12-16T11:01:38;9.30;91.20
5494;DHT22;2769;49.864;8.656;2022-12-16T11:04:29;9.20;91.30
5494;DHT22;2769;49.864;8.656;2022-12-16T11:07:29;9.00;91.40
5494;DHT22;2769;49.864;8.656;2022-12-16T11:10:27;8.80;91.50
5494;DHT22;2769;49.864;8.656;2022-12-16T11:13:19;8.60;92.00
5494;DHT22;2769;49.864;8.656;2022-12-16T11:16:08;8.20;91.90
5494;DHT22;2769;49.864;8.656;2022-12-16T11:18:57;8.10;92.50
5494;DHT22;2769;49.864;8.656;2022-12-16T11:21:43;7.80;93.20
5494;DHT22;2769;49.864;8.656;2022-12-16T11:24:30;7.80;93.10
5494;DHT22;2769;49.864;8.656;2022-12-16T11:27:21;7.80;93.10
5494;DHT22;2769;49.864;8.656;2022-12-16T11:30:19;7.70;93.10
5494;DHT22;2769;49.864;8.656;2022-12-16T11:33:11;7.20;93.50
5494;DHT22;2769;49.864;8.656;2022-12-16T11:36:06;7.40;94.00
5494;DHT22;2769;49.864;8.656;2022-12-16T11:38:54;7.10;93.80
5494;DHT22;2769;49.864;8.656;2022-12-16T11:41:42;7.20;94.00
5494;DHT22;2769;49.864;8.656;2022-12-16T11:44:35;7.40;94.00
5494;DHT22;2769;49.864;8.656;2022-12-16T11:47:29;7.60;93.90
5494;DHT22;2769;49.864;8.656;2022-12-16T11:50:19;7.40;93.30
5494;DHT22;2769;49.864;8.656;2022-12-16T11:53:23;7.60;93.20
5494;DHT22;2769;49.864;8.656;2022-12-16T11:56:14;7.20;93.30
5494;DHT22;2769;49.864;8.656;2022-12-16T11:59:08;6.70;93.40
5494;DHT22;2769;49.864;8.656;2022-12-16T12:02:14;6.20;94.50
5494;DHT22;2769;49.864;8.656;2022-12-16T12:05:00;6.20;94.70
5494;DHT22;2769;49.864;8.656;2022-12-16T12:07:51;5.50;95.50
5494;DHT22;2769;49.864;8.656;2022-12-16T12:11:03;5.30;96.40
5494;DHT22;2769;49.864;8.656;2022-12-16T12:13:59;5.10;97.10
5494;DHT22;2769;49.864;8.656;2022-12-16T12:17:07;5.10;97.30
5494;DHT22;2769;49.864;8.656;2022-12-16T12:20:04;5.00;97.70
5494;DHT22;2769;49.864;8.656;2022-12-16T12:22:56;4.90;97.90
5494;DHT22;2769;49.864;8.656;2022-12-16T12:25:48;4.90;98.20
5494;DHT22;2769;49.864;8.656;2022-12-16T12:28:46;4.60;98.40
5494;DHT22;2769;49.864;8.656;2022-12-16T12:31:38;4.50;98.90
5494;DHT22;2769;49.864;8.656;2022-12-16T12:34:30;4.30;99.60
5494;DHT22;2769;49.864;8.656;2022-12-16T12:37:22;4.40;99.40
5494;DHT22;2769;49.864;8.656;2022-12-16T12:40:19;4.70;99.20
5494;DHT22;2769;49.864;8.656;2022-12-16T12:43:15;4.50;98.80
5494;DHT22;2769;49.864;8.656;2022-12-16T12:46:16;4.40;99.20
5494;DHT22;2769;49.864;8.656;2022-12-16T12:49:12;4.40;99.30
5494;DHT22;2769;49.864;8.656;2022-12-16T12:52:10;4.60;99.50
5494;DHT22;2769;49.864;8.656;2022-12-16T12:55:04;5.00;99.90
5494;DHT22;2769;49.864;8.656;2022-12-16T12:57:55;5.20;99.90
5494;DHT22;2769;49.864;8.656;2022-12-16T13:00:46;5.10;99.90
5494;DHT22;2769;49.864;8.656;2022-12-16T13:03:38;4.90;99.80
5494;DHT22;2769;49.864;8.656;2022-12-16T13:06:27;4.60;99.20
5494;DHT22;2769;49.864;8.656;2022-12-16T13:09:25;4.10;99.80
5494;DHT22;2769;49.864;8.656;2022-12-16T13:12:24;4.20;99.90
5494;DHT22;2769;49.864;8.656;2022-12-16T13:15:17;4.00;99.90
5494;DHT22;2769;49.864;8.656;2022-12-16T13:18:21;4.10;99.90
5494;DHT22;2769;49.864;8.656;2022-12-16T13:24:42;4.00;99.90
5494;DHT22;2769;49.864;8.656;2022-12-16T13:27:44;4.80;99.90
5494;DHT22;2769;49.864;8.656;2022-12-16T13:30:32;5.10;99.20
5494;DHT22;2769;49.864;8.656;2022-12-16T13:33:26;5.10;98.70
5494;DHT22;2769;49.864;8.656;2022-12-16T13:36:17;5.40;98.60
5494;DHT22;2769;49.864;8.656;2022-12-16T13:39:20;5.50;97.60
5494;DHT22;2769;49.864;8.656;2022-12-16T13:45:36;5.00;97.90
5494;DHT22;2769;49.864;8.656;2022-12-16T13:48:29;5.20;98.00
5494;DHT22;2769;49.864;8.656;2022-12-16T13:54:42;5.00;98.00
5494;DHT22;2769;49.864;8.656;2022-12-16T13:57:35;4.50;98.70
5494;DHT22;2769;49.864;8.656;2022-12-16T14:00:26;4.20;99.50
5494;DHT22;2769;49.864;8.656;2022-12-16T14:03:17;3.80;99.90
5494;DHT22;2769;49.864;8.656;2022-12-16T14:06:08;4.00;99.90
5494;DHT22;2769;49.864;8.656;2022-12-16T14:08:55;4.00;99.90
5494;DHT22;2769;49.864;8.656;2022-12-16T14:11:46;4.20;99.90
5494;DHT22;2769;49.864;8.656;2022-12-16T14:14:40;4.30;99.90
5494;DHT22;2769;49.864;8.656;2022-12-16T14:17:33;4.60;99.90
5494;DHT22;2769;49.864;8.656;2022-12-16T14:20:28;4.80;99.90
5494;DHT22;2769;49.864;8.656;2022-12-16T14:23:25;4.80;99.90
5494;DHT22;2769;49.864;8.656;2022-12-16T14:26:23;4.50;99.90
5494;DHT22;2769;49.864;8.656;2022-12-16T14:29:17;3.90;99.90
5494;DHT22;2769;49.864;8.656;2022-12-16T14:32:20;4.20;99.90
5494;DHT22;2769;49.864;8.656;2022-12-16T14:35:12;3.80;99.90
5494;DHT22;2769;49.864;8.656;2022-12-16T14:38:11;3.70;99.90
5494;DHT22;2769;49.864;8.656;2022-12-16T14:40:57;3.60;99.90
5494;DHT22;2769;49.864;8.656;2022-12-16T14:43:42;3.80;99.90
5494;DHT22;2769;49.864;8.656;2022-12-16T14:46:30;3.70;99.90
5494;DHT22;2769;49.864;8.656;2022-12-16T14:49:20;3.80;99.90
5494;DHT22;2769;49.864;8.656;2022-12-16T14:52:17;3.70;99.90
5494;DHT22;2769;49.864;8.656;2022-12-16T14:55:11;3.50;99.90
5494;DHT22;2769;49.864;8.656;2022-12-16T14:58:05;3.50;99.90
5494;DHT22;2769;49.864;8.656;2022-12-16T15:00:53;3.40;99.90
5494;DHT22;2769;49.864;8.656;2022-12-16T15:03:52;3.30;99.90
5494;DHT22;2769;49.864;8.656;2022-12-16T15:06:41;3.20;99.90
5494;DHT22;2769;49.864;8.656;2022-12-16T15:09:31;3.30;99.90
5494;DHT22;2769;49.864;8.656;2022-12-16T15:12:19;3.00;99.90
5494;DHT22;2769;49.864;8.656;2022-12-16T15:15:09;2.80;99.90
5494;DHT22;2769;49.864;8.656;2022-12-16T15:17:56;3.00;99.90
5494;DHT22;2769;49.864;8.656;2022-12-16T15:20:49;3.10;99.90
5494;DHT22;2769;49.864;8.656;2022-12-16T15:23:39;3.00;99.90
5494;DHT22;2769;49.864;8.656;2022-12-16T15:26:27;2.80;99.90
5494;DHT22;2769;49.864;8.656;2022-12-16T15:29:27;2.80;99.90
5494;DHT22;2769;49.864;8.656;2022-12-16T15:32:27;2.70;99.90
5494;DHT22;2769;49.864;8.656;2022-12-16T15:35:24;2.50;99.90
5494;DHT22;2769;49.864;8.656;2022-12-16T15:38:17;2.80;99.90
5494;DHT22;2769;49.864;8.656;2022-12-16T15:41:20;2.90;99.90
5494;DHT22;2769;49.864;8.656;2022-12-16T15:44:13;2.60;99.90
5494;DHT22;2769;49.864;8.656;2022-12-16T15:46:59;2.40;99.90
5494;DHT22;2769;49.864;8.656;2022-12-16T15:49:46;2.30;99.90
5494;DHT22;2769;49.864;8.656;2022-12-16T15:52:35;2.30;99.90
5494;DHT22;2769;49.864;8.656;2022-12-16T15:55:27;2.20;99.90
5494;DHT22;2769;49.864;8.656;2022-12-16T15:58:20;2.30;99.90
5494;DHT22;2769;49.864;8.656;2022-12-16T16:01:10;2.30;99.90
5494;DHT22;2769;49.864;8.656;2022-12-16T16:04:01;2.40;99.90
5494;DHT22;2769;49.864;8.656;2022-12-16T16:06:49;2.20;99.90
5494;DHT22;2769;49.864;8.656;2022-12-16T16:09:36;2.10;99.90
5494;DHT22;2769;49.864;8.656;2022-12-16T16:12:23;2.10;99.90
5494;DHT22;2769;49.864;8.656;2022-12-16T16:15:13;2.40;99.90
5494;DHT22;2769;49.864;8.656;2022-12-16T16:18:00;2.20;99.90
5494;DHT22;2769;49.864;8.656;2022-12-16T16:20:47;2.00;99.90
5494;DHT22;2769;49.864;8.656;2022-12-16T16:23:33;2.10;99.90
5494;DHT22;2769;49.864;8.656;2022-12-16T16:26:25;2.00;99.90
5494;DHT22;2769;49.864;8.656;2022-12-16T16:29:12;2.10;99.90
5494;DHT22;2769;49.864;8.656;2022-12-16T16:32:00;2.10;99.90
5494;DHT22;2769;49.864;8.656;2022-12-16T16:34:46;2.20;99.90
5494;DHT22;2769;49.864;8.656;2022-12-16T16:37:31;1.90;99.90
5494;DHT22;2769;49.864;8.656;2022-12-16T16:40:22;1.90;99.90
5494;DHT22;2769;49.864;8.656;2022-12-16T16:43:11;1.70;99.90
5494;DHT22;2769;49.864;8.656;2022-12-16T16:45:57;1.80;99.90
5494;DHT22;2769;49.864;8.656;2022-12-16T16:48:44;1.80;99.90
5494;DHT22;2769;49.864;8.656;2022-12-16T16:51:30;1.60;99.90
5494;DHT22;2769;49.864;8.656;2022-12-16T16:54:15;1.60;99.90
5494;DHT22;2769;49.864;8.656;2022-12-16T16:57:01;1.60;99.90
5494;DHT22;2769;49.864;8.656;2022-12-16T16:59:47;1.60;99.90
5494;DHT22;2769;49.864;8.656;2022-12-16T17:02:32;1.60;99.90
5494;DHT22;2769;49.864;8.656;2022-12-16T17:05:20;1.50;99.90
5494;DHT22;2769;49.864;8.656;2022-12-16T17:08:05;1.50;99.90
5494;DHT22;2769;49.864;8.656;2022-12-16T17:10:56;1.80;99.90
5494;DHT22;2769;49.864;8.656;2022-12-16T17:13:42;1.50;99.90
5494;DHT22;2769;49.864;8.656;2022-12-16T17:16:27;1.70;99.90
5494;DHT22;2769;49.864;8.656;2022-12-16T17:19:13;1.80;99.90
5494;DHT22;2769;49.864;8.656;2022-12-16T17:21:56;1.60;99.90
5494;DHT22;2769;49.864;8.656;2022-12-16T17:24:42;1.70;99.90
5494;DHT22;2769;49.864;8.656;2022-12-16T17:27:27;1.50;99.90
5494;DHT22;2769;49.864;8.656;2022-12-16T17:30:15;1.60;99.90
5494;DHT22;2769;49.864;8.656;2022-12-16T17:33:01;1.60;99.90
5494;DHT22;2769;49.864;8.656;2022-12-16T17:35:48;1.70;99.90
5494;DHT22;2769;49.864;8.656;2022-12-16T17:38:39;1.60;99.90
5494;DHT22;2769;49.864;8.656;2022-12-16T17:41:26;1.50;99.90
5494;DHT22;2769;49.864;8.656;2022-12-16T17:44:09;1.30;99.90
5494;DHT22;2769;49.864;8.656;2022-12-16T17:46:51;1.40;99.90
5494;DHT22;2769;49.864;8.656;2022-12-16T17:49:37;1.50;99.90
5494;DHT22;2769;49.864;8.656;2022-12-16T17:52:22;1.30;99.90
5494;DHT22;2769;49.864;8.656;2022-12-16T17:55:09;1.40;99.90
5494;DHT22;2769;49.864;8.656;2022-12-16T17:57:55;1.30;99.90
5494;DHT22;2769;49.864;8.656;2022-12-16T18:00:41;1.20;99.90
5494;DHT22;2769;49.864;8.656;2022-12-16T18:03:27;1.20;99.90
5494;DHT22;2769;49.864;8.656;2022-12-16T18:06:13;1.20;99.90
5494;DHT22;2769;49.864;8.656;2022-12-16T18:08:59;1.50;99.90
5494;DHT22;2769;49.864;8.656;2022-12-16T18:11:47;1.00;99.90
5494;DHT22;2769;49.864;8.656;2022-12-16T18:14:33;1.00;99.90
5494;DHT22;2769;49.864;8.656;2022-12-16T18:17:18;1.20;99.90